createdAt,value
2019-02-21T00:00:37.873Z,33.50
2019-02-21T00:03:08.958Z,26.33
2019-02-21T00:05:40.556Z,28.40
2019-02-21T00:08:10.804Z,24.77
2019-02-21T00:10:41.418Z,26.48
2019-02-21T00:13:11.670Z,23.57
2019-02-21T00:15:41.903Z,31.25
2019-02-21T00:18:12.156Z,23.92
2019-02-21T00:20:42.402Z,32.28
2019-02-21T00:23:13.025Z,34.33
2019-02-21T00:25:43.257Z,24.25
2019-02-21T00:28:13.499Z,26.52
2019-02-21T00:30:43.732Z,31.00
2019-02-21T00:33:13.976Z,28.38
2019-02-21T00:35:45.377Z,23.92
2019-02-21T00:38:15.615Z,22.45
2019-02-21T00:40:45.846Z,27.40
2019-02-21T00:43:16.095Z,27.15
2019-02-21T00:45:46.331Z,33.25
2019-02-21T00:48:16.569Z,25.43
2019-02-21T00:50:46.812Z,27.75
2019-02-21T00:53:17.075Z,17.90
2019-02-21T00:55:47.309Z,16.32
2019-02-21T00:58:17.555Z,24.43
2019-02-21T01:00:47.810Z,26.87
2019-02-21T01:03:18.045Z,24.82
2019-02-21T01:05:48.292Z,22.75
2019-02-21T01:08:18.535Z,18.85
2019-02-21T01:10:48.770Z,20.72
2019-02-21T01:13:19.010Z,22.73
2019-02-21T01:15:49.251Z,18.15
2019-02-21T01:18:19.491Z,21.70
2019-02-21T01:20:49.726Z,19.65
2019-02-21T01:23:19.964Z,20.35
2019-02-21T01:25:50.198Z,20.92
2019-02-21T01:28:20.440Z,23.27
2019-02-21T01:30:57.098Z,15.40
2019-02-21T01:33:22.614Z,20.85
2019-02-21T01:35:52.856Z,20.97
2019-02-21T01:38:23.161Z,16.30
2019-02-21T01:40:53.402Z,23.90
2019-02-21T01:43:23.636Z,21.23
2019-02-21T01:45:54.811Z,17.90
2019-02-21T01:48:25.037Z,21.30
2019-02-21T01:50:55.273Z,21.23
2019-02-21T01:53:25.509Z,16.52
2019-02-21T01:55:55.774Z,18.75
2019-02-21T01:58:26.009Z,17.83
2019-02-21T02:00:56.264Z,24.45
2019-02-21T02:03:26.866Z,15.63
2019-02-21T02:05:57.119Z,14.40
2019-02-21T02:08:27.355Z,18.90
2019-02-21T02:10:57.608Z,15.63
2019-02-21T02:13:27.856Z,18.20
2019-02-21T02:15:58.112Z,16.30
2019-02-21T02:18:28.351Z,17.77
2019-02-21T02:20:58.600Z,19.77
2019-02-21T02:23:28.839Z,18.27
2019-02-21T02:25:59.094Z,20.37
2019-02-21T02:28:29.328Z,18.80
2019-02-21T02:30:59.578Z,24.10
2019-02-21T02:33:29.814Z,16.53
2019-02-21T02:36:00.070Z,16.30
2019-02-21T02:38:30.309Z,19.73
2019-02-21T02:41:00.570Z,18.80
2019-02-21T02:43:30.809Z,15.73
2019-02-21T02:46:01.063Z,19.93
2019-02-21T02:48:31.483Z,16.50
2019-02-21T02:51:01.734Z,15.80
2019-02-21T02:53:31.965Z,17.55
2019-02-21T02:56:02.220Z,15.65
2019-02-21T02:58:32.455Z,18.35
2019-02-21T03:01:02.698Z,17.57
2019-02-21T03:03:32.937Z,18.80
2019-02-21T03:06:03.225Z,26.23
2019-02-21T03:08:33.434Z,20.97
2019-02-21T03:11:03.685Z,21.15
2019-02-21T03:13:33.924Z,17.20
2019-02-21T03:16:05.247Z,23.50
2019-02-21T03:18:35.484Z,19.20
2019-02-21T03:21:05.734Z,25.27
2019-02-21T03:23:35.976Z,26.37
2019-02-21T03:26:06.237Z,18.40
2019-02-21T03:28:36.462Z,20.67
2019-02-21T03:31:06.735Z,16.77
2019-02-21T03:33:38.024Z,20.27
2019-02-21T03:36:08.286Z,16.50
2019-02-21T03:38:38.548Z,15.77
2019-02-21T03:41:08.797Z,15.30
2019-02-21T03:43:39.020Z,19.83
2019-02-21T03:46:09.267Z,16.13
2019-02-21T03:48:39.502Z,15.40
2019-02-21T03:51:09.756Z,16.40
2019-02-21T03:53:39.995Z,16.40
2019-02-21T03:56:10.245Z,17.13
2019-02-21T03:58:40.493Z,10.60
2019-02-21T04:01:10.764Z,15.13
2019-02-21T04:03:41.009Z,16.77
2019-02-21T04:06:11.288Z,15.07
2019-02-21T04:08:41.520Z,16.10
2019-02-21T04:11:11.772Z,10.87
2019-02-21T04:13:42.010Z,16.43
2019-02-21T04:16:12.265Z,21.23
2019-02-21T04:18:42.499Z,22.23
2019-02-21T04:21:12.748Z,26.17
2019-02-21T04:23:43.362Z,25.13
2019-02-21T04:26:13.618Z,24.63
2019-02-21T04:28:45.841Z,21.77
2019-02-21T04:31:15.806Z,23.37
2019-02-21T04:33:46.043Z,18.10
2019-02-21T04:36:16.290Z,20.47
2019-02-21T04:38:46.522Z,15.50
2019-02-21T04:41:16.788Z,16.87
2019-02-21T04:43:47.022Z,17.77
2019-02-21T04:46:17.274Z,16.87
2019-02-21T04:48:47.505Z,17.63
2019-02-21T04:51:17.760Z,20.30
2019-02-21T04:53:47.995Z,18.30
2019-02-21T04:56:18.246Z,18.53
2019-02-21T04:58:48.483Z,22.93
2019-02-21T05:01:21.776Z,20.87
2019-02-21T05:03:52.015Z,19.67
2019-02-21T05:06:22.268Z,15.87
2019-02-21T05:08:52.495Z,18.00
2019-02-21T05:11:22.750Z,18.00
2019-02-21T05:13:52.988Z,20.10
2019-02-21T05:16:23.237Z,25.70
2019-02-21T05:18:53.474Z,22.47
2019-02-21T05:21:23.735Z,30.27
2019-02-21T05:23:53.974Z,30.83
2019-02-21T05:26:28.812Z,26.70
2019-02-21T05:29:00.617Z,24.20
2019-02-21T05:31:38.430Z,20.57
2019-02-21T05:34:10.309Z,24.70
2019-02-21T05:36:42.201Z,27.17
2019-02-21T05:39:14.099Z,25.10
2019-02-21T05:41:54.793Z,23.33
2019-02-21T05:44:43.194Z,21.70
2019-02-21T05:47:32.189Z,22.10
2019-02-21T05:50:19.083Z,24.43
2019-02-21T05:52:56.928Z,19.13
2019-02-21T05:55:44.973Z,20.50
2019-02-21T05:58:16.849Z,25.30
2019-02-21T06:00:51.431Z,22.37
2019-02-21T06:03:23.302Z,23.77
2019-02-21T06:05:55.204Z,23.07
2019-02-21T06:08:35.987Z,18.33
2019-02-21T06:11:13.848Z,23.03
2019-02-21T06:13:57.653Z,22.90
2019-02-21T06:16:33.039Z,26.70
2019-02-21T06:19:04.977Z,35.23
2019-02-21T06:21:53.320Z,18.27
2019-02-21T06:24:31.187Z,22.90
2019-02-21T06:27:12.456Z,19.73
2019-02-21T06:29:59.672Z,24.67
2019-02-21T06:32:29.927Z,28.53
2019-02-21T06:35:02.684Z,44.47
2019-02-21T06:37:32.124Z,39.17
2019-02-21T06:40:02.529Z,54.67
2019-02-21T06:42:32.785Z,47.07
2019-02-21T06:45:03.033Z,49.87
2019-02-21T06:47:33.273Z,58.10
2019-02-21T06:50:03.887Z,40.20
2019-02-21T06:52:34.139Z,42.37
2019-02-21T06:55:05.303Z,47.60
2019-02-21T06:57:35.557Z,41.70
2019-02-21T07:00:06.371Z,40.50
2019-02-21T07:02:36.884Z,30.47
2019-02-21T07:05:07.270Z,21.83
2019-02-21T07:07:37.532Z,20.73
2019-02-21T07:10:08.145Z,25.20
2019-02-21T07:12:38.403Z,26.03
2019-02-21T07:15:10.683Z,33.13
2019-02-21T07:17:48.792Z,34.20
2019-02-21T07:20:13.252Z,35.80
2019-02-21T07:22:43.509Z,38.80
2019-02-21T07:25:32.473Z,32.27
2019-02-21T07:28:11.295Z,32.60
2019-02-21T07:30:34.714Z,35.83
2019-02-21T07:33:04.975Z,38.63
2019-02-21T07:35:35.213Z,35.10
2019-02-21T07:38:05.475Z,35.53
2019-02-21T07:40:35.720Z,37.50
2019-02-21T07:43:06.100Z,49.87
2019-02-21T07:45:36.651Z,55.77
2019-02-21T07:48:07.171Z,47.73
2019-02-21T07:50:37.412Z,43.57
2019-02-21T07:53:07.672Z,48.73
2019-02-21T07:55:38.751Z,54.13
2019-02-21T07:58:09.005Z,41.73
2019-02-21T08:00:39.247Z,45.63
2019-02-21T08:03:09.519Z,51.97
2019-02-21T08:05:39.745Z,88.27
2019-02-21T08:08:10.008Z,42.38
2019-02-21T08:10:40.252Z,40.73
2019-02-21T08:13:10.525Z,37.70
2019-02-21T08:15:40.765Z,34.08
2019-02-21T08:18:11.013Z,38.05
2019-02-21T08:20:41.358Z,36.20
2019-02-21T08:23:11.577Z,56.42
2019-02-21T08:25:41.829Z,31.60
2019-02-21T08:28:12.236Z,63.42
2019-02-21T08:30:42.484Z,49.70
2019-02-21T08:33:26.119Z,59.83
2019-02-21T08:35:57.925Z,53.20
2019-02-21T08:38:32.856Z,50.67
2019-02-21T08:41:03.350Z,49.45
2019-02-21T08:43:40.639Z,48.33
2019-02-21T08:46:12.026Z,47.95
2019-02-21T08:48:44.153Z,46.75
2019-02-21T08:51:18.360Z,48.70
2019-02-21T08:53:58.062Z,47.53
2019-02-21T08:56:30.221Z,48.15
2019-02-21T08:59:00.496Z,42.08
2019-02-21T09:01:30.753Z,53.13
2019-02-21T09:04:09.824Z,52.08
2019-02-21T09:06:32.940Z,78.80
2019-02-21T09:09:04.445Z,46.77
2019-02-21T09:11:39.976Z,37.13
2019-02-21T09:14:12.538Z,49.10
2019-02-21T09:17:01.219Z,48.48
2019-02-21T09:19:31.687Z,44.90
2019-02-21T09:22:03.754Z,47.78
2019-02-21T09:24:41.291Z,49.13
2019-02-21T09:27:10.650Z,45.45
2019-02-21T09:29:42.105Z,41.23
2019-02-21T09:32:21.440Z,32.57
2019-02-21T09:34:54.830Z,48.73
2019-02-21T09:37:28.803Z,42.37
2019-02-21T09:40:02.944Z,58.47
2019-02-21T09:42:33.373Z,34.78
2019-02-21T09:45:05.044Z,48.10
2019-02-21T09:47:35.283Z,40.92
2019-02-21T09:50:07.376Z,39.77
2019-02-21T09:52:37.616Z,48.95
2019-02-21T09:55:10.499Z,56.40
2019-02-21T09:57:41.917Z,45.70
2019-02-21T10:00:15.570Z,47.63
2019-02-21T10:02:48.147Z,40.20
2019-02-21T10:05:20.941Z,36.60
2019-02-21T10:07:51.371Z,40.33
2019-02-21T10:10:22.974Z,51.67
2019-02-21T10:12:53.646Z,41.37
2019-02-21T10:15:24.009Z,42.43
2019-02-21T10:17:54.394Z,34.35
2019-02-21T10:20:24.942Z,39.00
2019-02-21T10:22:55.185Z,35.90
2019-02-21T10:25:30.136Z,34.70
2019-02-21T10:28:00.669Z,37.35
2019-02-21T10:30:32.718Z,42.43
2019-02-21T10:33:02.965Z,34.15
2019-02-21T10:35:34.899Z,32.38
2019-02-21T10:38:08.188Z,37.25
2019-02-21T10:40:38.444Z,36.20
2019-02-21T10:43:10.946Z,39.58
2019-02-21T10:45:49.160Z,33.40
2019-02-21T10:48:22.273Z,39.50
2019-02-21T10:50:53.734Z,35.52
2019-02-21T10:53:27.742Z,34.45
2019-02-21T10:56:01.428Z,38.45
2019-02-21T10:58:33.910Z,41.05
2019-02-21T11:01:04.179Z,41.30
2019-02-21T11:03:40.188Z,35.85
2019-02-21T11:06:14.622Z,34.60
2019-02-21T11:08:44.941Z,39.38
2019-02-21T11:11:17.287Z,43.73
2019-02-21T11:13:49.399Z,40.58
2019-02-21T11:16:21.672Z,34.05
2019-02-21T11:18:51.982Z,36.17
2019-02-21T11:21:22.522Z,38.60
2019-02-21T11:23:52.775Z,43.83
2019-02-21T11:26:23.042Z,33.35
2019-02-21T11:28:53.361Z,49.50
2019-02-21T11:31:27.894Z,41.75
2019-02-21T11:33:59.080Z,34.10
2019-02-21T11:36:30.905Z,40.03
2019-02-21T11:39:01.149Z,37.40
2019-02-21T11:41:35.379Z,44.85
2019-02-21T11:44:07.414Z,44.80
2019-02-21T11:46:38.423Z,42.13
2019-02-21T11:49:08.851Z,36.45
2019-02-21T11:51:40.970Z,36.30
2019-02-21T11:54:15.955Z,38.60
2019-02-21T11:56:52.997Z,38.95
2019-02-21T11:59:24.156Z,43.38
2019-02-21T12:01:55.315Z,40.70
2019-02-21T12:04:25.598Z,46.02
2019-02-21T12:06:55.848Z,50.50
2019-02-21T12:09:26.174Z,43.30
2019-02-21T12:11:58.011Z,48.17
2019-02-21T12:14:28.275Z,48.30
2019-02-21T12:17:01.360Z,44.95
2019-02-21T12:19:31.611Z,20.65
2019-02-21T12:22:01.936Z,41.42
2019-02-21T12:24:32.185Z,37.05
2019-02-21T12:27:02.433Z,40.98
2019-02-21T12:29:36.146Z,38.42
2019-02-21T12:32:06.397Z,36.38
2019-02-21T12:34:37.985Z,35.55
2019-02-21T12:37:08.902Z,38.50
2019-02-21T12:39:39.150Z,36.15
2019-02-21T12:42:09.789Z,38.42
2019-02-21T12:44:40.074Z,40.73
2019-02-21T12:47:10.316Z,38.45
2019-02-21T12:49:40.573Z,40.55
2019-02-21T12:52:10.813Z,41.13
2019-02-21T12:54:41.085Z,38.83
2019-02-21T12:57:13.162Z,44.55
2019-02-21T12:59:43.386Z,31.33
2019-02-21T13:02:13.790Z,36.23
2019-02-21T13:04:44.049Z,38.80
2019-02-21T13:07:15.291Z,36.65
2019-02-21T13:09:46.618Z,39.80
2019-02-21T13:12:17.211Z,41.23
2019-02-21T13:14:47.453Z,33.88
2019-02-21T13:17:26.214Z,47.10
2019-02-21T13:19:56.444Z,33.20
2019-02-21T13:22:26.748Z,37.95
2019-02-21T13:24:57.181Z,32.05
2019-02-21T13:27:27.586Z,35.15
2019-02-21T13:29:58.175Z,33.02
2019-02-21T13:32:28.501Z,35.87
2019-02-21T13:35:00.441Z,37.83
2019-02-21T13:37:30.745Z,34.40
2019-02-21T13:40:02.197Z,37.23
2019-02-21T13:42:37.746Z,39.40
2019-02-21T13:45:09.837Z,38.40
2019-02-21T13:47:40.526Z,30.40
2019-02-21T13:50:18.601Z,30.55
2019-02-21T13:52:51.578Z,33.08
2019-02-21T13:55:25.348Z,37.60
2019-02-21T13:57:55.616Z,40.35
2019-02-21T14:00:25.852Z,28.02
2019-02-21T14:02:56.125Z,33.38
2019-02-21T14:05:27.374Z,35.45
2019-02-21T14:07:59.487Z,37.88
2019-02-21T14:10:29.783Z,38.02
2019-02-21T14:13:01.113Z,47.50
2019-02-21T14:15:33.058Z,42.77
2019-02-21T14:18:03.470Z,42.73
2019-02-21T14:20:44.590Z,39.38
2019-02-21T14:23:06.115Z,46.35
2019-02-21T14:25:40.664Z,37.85
2019-02-21T14:28:09.892Z,49.90
2019-02-21T14:30:43.180Z,53.70
2019-02-21T14:33:17.526Z,41.47
2019-02-21T14:35:47.897Z,37.58
2019-02-21T14:38:27.494Z,45.52
2019-02-21T14:40:51.698Z,46.85
2019-02-21T14:43:21.996Z,44.48
2019-02-21T14:45:52.302Z,33.38
2019-02-21T14:48:26.624Z,32.05
2019-02-21T14:50:59.425Z,33.48
2019-02-21T14:53:30.570Z,44.63
2019-02-21T14:56:03.236Z,44.48
2019-02-21T14:58:34.403Z,49.83
2019-02-21T15:01:05.044Z,57.93
2019-02-21T15:03:35.303Z,67.07
2019-02-21T15:06:08.291Z,60.20
2019-02-21T15:08:38.562Z,52.50
2019-02-21T15:11:08.880Z,52.80
2019-02-21T15:13:40.620Z,48.60
2019-02-21T15:16:10.876Z,50.87
2019-02-21T15:18:42.508Z,50.97
2019-02-21T15:21:12.741Z,40.00
2019-02-21T15:23:43.015Z,39.90
2019-02-21T15:26:13.278Z,36.98
2019-02-21T15:28:44.740Z,36.03
2019-02-21T15:31:14.997Z,43.23
2019-02-21T15:33:46.728Z,42.30
2019-02-21T15:36:17.063Z,39.83
2019-02-21T15:38:47.328Z,39.65
2019-02-21T15:41:17.708Z,44.88
2019-02-21T15:43:49.157Z,46.73
2019-02-21T15:46:19.412Z,37.13
2019-02-21T15:48:49.701Z,37.90
2019-02-21T15:51:19.959Z,45.83
2019-02-21T15:53:50.807Z,35.20
2019-02-21T15:56:21.338Z,37.42
2019-02-21T15:58:53.326Z,42.85
2019-02-21T16:01:25.008Z,43.58
2019-02-21T16:03:55.514Z,47.03
2019-02-21T16:06:25.769Z,40.40
2019-02-21T16:08:58.388Z,38.70
2019-02-21T16:11:29.998Z,44.45
2019-02-21T16:14:03.440Z,44.73
2019-02-21T16:16:32.480Z,62.50
2019-02-21T16:19:04.026Z,55.07
2019-02-21T16:21:34.561Z,47.30
2019-02-21T16:24:04.820Z,44.38
2019-02-21T16:26:35.213Z,55.00
2019-02-21T16:29:06.862Z,44.63
2019-02-21T16:31:37.173Z,50.57
2019-02-21T16:34:09.317Z,41.37
2019-02-21T16:36:39.372Z,32.87
2019-02-21T16:39:11.093Z,52.23
2019-02-21T16:41:41.663Z,46.17
2019-02-21T16:44:15.092Z,41.20
2019-02-21T16:46:46.529Z,46.20
2019-02-21T16:49:16.755Z,38.92
2019-02-21T16:51:47.301Z,44.83
2019-02-21T16:54:18.552Z,47.17
2019-02-21T16:56:49.148Z,51.77
2019-02-21T16:59:20.521Z,47.43
2019-02-21T17:01:50.954Z,46.73
2019-02-21T17:04:22.380Z,40.03
2019-02-21T17:06:52.657Z,44.37
2019-02-21T17:09:23.475Z,46.07
2019-02-21T17:11:55.667Z,37.43
2019-02-21T17:14:26.947Z,64.03
2019-02-21T17:16:59.949Z,48.68
2019-02-21T17:19:31.381Z,46.97
2019-02-21T17:22:01.647Z,46.47
2019-02-21T17:24:33.406Z,46.57
2019-02-21T17:27:06.186Z,42.53
2019-02-21T17:29:38.688Z,54.37
2019-02-21T17:32:12.249Z,43.90
2019-02-21T17:34:42.784Z,54.10
2019-02-21T17:37:24.439Z,44.60
2019-02-21T17:39:50.219Z,51.90
2019-02-21T17:42:20.700Z,41.42
2019-02-21T17:44:54.646Z,47.62
2019-02-21T17:47:32.705Z,46.57
2019-02-21T17:50:03.375Z,45.00
2019-02-21T17:52:36.778Z,51.80
2019-02-21T17:55:10.287Z,46.87
2019-02-21T17:57:40.887Z,40.17
2019-02-21T18:00:22.773Z,50.10
2019-02-21T18:02:55.418Z,43.00
2019-02-21T18:05:26.033Z,57.80
2019-02-21T18:08:00.097Z,52.33
2019-02-21T18:10:30.405Z,47.70
2019-02-21T18:13:01.051Z,45.97
2019-02-21T18:15:34.205Z,52.80
2019-02-21T18:18:07.872Z,50.67
2019-02-21T18:20:39.770Z,49.15
2019-02-21T18:23:12.430Z,47.53
2019-02-21T18:25:50.194Z,46.35
2019-02-21T18:28:22.443Z,51.23
2019-02-21T18:30:54.945Z,42.07
2019-02-21T18:33:25.587Z,47.93
2019-02-21T18:35:57.644Z,44.57
2019-02-21T18:38:29.095Z,47.50
2019-02-21T18:41:00.554Z,52.30
2019-02-21T18:43:30.877Z,56.93
2019-02-21T18:46:01.306Z,62.00
2019-02-21T18:48:31.841Z,36.87
2019-02-21T18:51:02.152Z,23.73
2019-02-21T18:53:35.422Z,48.55
2019-02-21T18:56:05.882Z,40.17
2019-02-21T18:58:37.354Z,40.73
2019-02-21T19:01:08.476Z,46.47
2019-02-21T19:03:38.780Z,45.83
2019-02-21T19:06:09.213Z,45.03
2019-02-21T19:08:41.343Z,57.77
2019-02-21T19:11:11.689Z,34.20
2019-02-21T19:13:42.097Z,51.60
2019-02-21T19:16:12.413Z,49.60
2019-02-21T19:18:43.709Z,42.30
2019-02-21T19:21:15.385Z,49.37
2019-02-21T19:23:45.684Z,42.00
2019-02-21T19:26:16.099Z,41.35
2019-02-21T19:28:46.462Z,47.47
2019-02-21T19:31:16.760Z,51.53
2019-02-21T19:33:47.196Z,38.77
2019-02-21T19:36:18.781Z,33.77
2019-02-21T19:38:49.221Z,30.97
2019-02-21T19:41:19.935Z,34.63
2019-02-21T19:43:51.956Z,33.03
2019-02-21T19:46:24.634Z,40.85
2019-02-21T19:48:56.554Z,46.23
2019-02-21T19:51:26.903Z,40.10
2019-02-21T19:53:57.376Z,44.50
2019-02-21T19:56:30.595Z,42.47
2019-02-21T19:59:01.157Z,35.70
2019-02-21T20:01:32.234Z,42.87
2019-02-21T20:04:04.844Z,33.45
2019-02-21T20:06:35.159Z,45.47
2019-02-21T20:09:05.551Z,52.50
2019-02-21T20:11:39.152Z,58.30
2019-02-21T20:14:09.541Z,46.67
2019-02-21T20:16:39.821Z,45.63
2019-02-21T20:19:10.333Z,40.05
2019-02-21T20:21:40.789Z,23.07
2019-02-21T20:24:11.362Z,33.93
2019-02-21T20:26:41.917Z,47.70
2019-02-21T20:29:15.535Z,53.07
2019-02-21T20:31:48.117Z,52.43
2019-02-21T20:34:22.486Z,50.13
2019-02-21T20:36:55.319Z,72.17
2019-02-21T20:39:29.491Z,79.50
2019-02-21T20:42:02.578Z,108.03
2019-02-21T20:44:34.147Z,70.37
2019-02-21T20:47:04.500Z,40.63
2019-02-21T20:49:42.030Z,42.27
2019-02-21T20:52:13.161Z,45.38
2019-02-21T20:54:54.902Z,43.23
2019-02-21T20:57:25.652Z,33.40
2019-02-21T21:00:00.834Z,41.33
2019-02-21T21:02:39.357Z,37.47
2019-02-21T21:05:10.023Z,32.30
2019-02-21T21:07:43.605Z,27.35
2019-02-21T21:10:16.001Z,33.25
2019-02-21T21:12:48.057Z,31.17
2019-02-21T21:15:19.608Z,41.85
2019-02-21T21:17:49.939Z,27.17
2019-02-21T21:20:21.354Z,31.23
2019-02-21T21:22:59.238Z,27.25
2019-02-21T21:25:39.887Z,35.05
2019-02-21T21:28:17.769Z,26.55
2019-02-21T21:30:48.069Z,29.70
2019-02-21T21:33:19.780Z,29.85
2019-02-21T21:35:53.060Z,24.92
2019-02-21T21:38:28.605Z,31.12
2019-02-21T21:40:59.589Z,27.07
2019-02-21T21:43:29.947Z,28.70
2019-02-21T21:46:04.450Z,25.68
2019-02-21T21:48:34.736Z,29.95
2019-02-21T21:51:05.950Z,25.08
2019-02-21T21:53:36.715Z,29.07
2019-02-21T21:56:10.219Z,24.55
2019-02-21T21:58:42.633Z,21.02
2019-02-21T22:01:14.957Z,21.60
2019-02-21T22:03:51.237Z,21.15
2019-02-21T22:06:21.572Z,22.20
2019-02-21T22:09:04.450Z,21.00
2019-02-21T22:11:26.918Z,22.45
2019-02-21T22:13:57.177Z,22.75
2019-02-21T22:16:29.591Z,27.15
2019-02-21T22:19:00.283Z,23.25
2019-02-21T22:21:30.615Z,24.05
2019-02-21T22:24:01.143Z,20.23
2019-02-21T22:26:31.639Z,24.65
2019-02-21T22:29:03.266Z,24.12
2019-02-21T22:31:33.776Z,17.52
2019-02-21T22:34:04.229Z,18.87
2019-02-21T22:36:34.830Z,18.42
2019-02-21T22:39:15.903Z,19.67
2019-02-21T22:41:41.255Z,21.02
2019-02-21T22:44:12.739Z,17.57
2019-02-21T22:46:44.137Z,20.02
2019-02-21T22:49:17.176Z,20.82
2019-02-21T22:51:50.733Z,23.15
2019-02-21T22:54:22.180Z,19.87
2019-02-21T22:56:53.687Z,21.25
2019-02-21T22:59:25.097Z,18.73
2019-02-21T23:01:58.496Z,23.22
2019-02-21T23:04:32.099Z,22.10
2019-02-21T23:07:11.636Z,28.67
2019-02-21T23:09:41.947Z,28.60
2019-02-21T23:12:13.399Z,24.60
2019-02-21T23:14:45.774Z,19.23
2019-02-21T23:17:16.610Z,25.15
2019-02-21T23:19:48.055Z,19.95
2019-02-21T23:22:18.328Z,18.57
2019-02-21T23:24:48.568Z,17.70
2019-02-21T23:27:18.866Z,14.65
2019-02-21T23:29:50.287Z,13.83
2019-02-21T23:32:20.529Z,15.72
2019-02-21T23:34:51.643Z,11.38
2019-02-21T23:37:21.882Z,14.38
2019-02-21T23:39:52.118Z,12.88
2019-02-21T23:42:22.362Z,15.80
2019-02-21T23:44:52.599Z,13.48
2019-02-21T23:47:22.842Z,10.40
2019-02-21T23:49:53.082Z,13.93
2019-02-21T23:52:23.398Z,11.43
2019-02-21T23:54:53.634Z,11.85
2019-02-21T23:57:23.887Z,11.33
2019-02-21T23:59:54.122Z,10.80
